Charter Quote
Worldwide +44-20-3874-8091 Call
Select Language Lang
SAFETY RELIABILITY EXPERIENCE

Soesterberg Airport (EHSB) - Jet Charter Services

AIRPORT INFORMATION
ICAOEHSB
IATAUTC
LOCATIONSoesterberg, Netherlands
FACILITY TYPEAIRPORT
Runway Length (ft) Width (ft) Surface Type Elevation (ft)
27/09 10089 148 ASP 65.96721

At Paramount Business Jets you can hire chartered private jets to and from Soesterberg Airport with as little as 4 hours of notice. All flights booked via Paramount Business Jets are operated by certified direct air carriers that meet and exceed the FAA part 135 and 121 protocol or a foreign equivalent safety authority. Furthermore, Paramount Business Jets subscribes to ARGUS for their third party safety checks of operators, aircraft, and crews prior each and every flight to and from Soesterberg Airport and worldwide.

  • Quote a trip using Soesterberg Airport or call us 24/7 - 365 days a year at +44-20-3874-8091.
Questions? Call +44-20-3874-8091

FBOs at Soesterberg Airport, EHSB, UTC

NAME ADDRESS PHONE WEBSITE
Base Operations    (313) 463-8985   

METAR Weather Data at Soesterberg Airport, EHSB, UTC

STATIONEHSB
OBSERVEDThu Nov 20, 09:25 UTC
NOWWed May 22, 08:49 UTC
AGE92039:24 hr ago
WINDW at 16 mph
VISIBILITY16 miles
METAREHSB 200925Z AUTO 28014KT 9999 // 11/09 Q1010

Call us on +44-20-3874-8091 (24 Hours) to Hire a Private Jet or Get a Quick Quote.

Find Airports Near any Location

Processing
...